createdAt,value
2018-09-26T11:19:27.062Z,37.93
2018-09-26T11:21:55.698Z,38.01
2018-09-26T11:24:24.530Z,38.10
2018-09-26T11:26:53.216Z,38.67
2018-09-26T11:29:21.987Z,39.28
2018-09-26T11:31:50.976Z,38.03
2018-09-26T11:34:19.654Z,38.01
2018-09-26T11:36:48.404Z,37.40
2018-09-26T11:39:17.310Z,38.71
2018-09-26T11:41:45.849Z,39.53
2018-09-26T11:44:14.539Z,38.46
2018-09-26T11:46:43.494Z,37.51
2018-09-26T11:49:12.094Z,37.95
2018-09-26T11:51:41.283Z,37.48
2018-09-26T11:54:09.861Z,37.67
2018-09-26T11:56:38.447Z,36.16
2018-09-26T11:59:07.399Z,35.42
2018-09-26T12:01:36.127Z,36.13
2018-09-26T12:04:05.004Z,36.99
2018-09-26T12:06:33.702Z,38.11
2018-09-26T12:09:02.287Z,36.79
2018-09-26T12:11:30.854Z,36.39
2018-09-26T12:13:59.552Z,37.66
2018-09-26T12:16:28.278Z,36.11
2018-09-26T12:18:56.839Z,36.34
2018-09-26T12:21:30.537Z,35.72
2018-09-26T12:23:54.414Z,36.14
2018-09-26T12:26:23.070Z,35.72
2018-09-26T12:28:51.645Z,37.70
2018-09-26T12:31:20.268Z,38.08
2018-09-26T12:33:48.866Z,37.08
2018-09-26T12:36:17.537Z,35.24
2018-09-26T12:38:46.413Z,34.97
2018-09-26T12:41:15.192Z,35.52
2018-09-26T12:43:43.871Z,35.97
2018-09-26T12:46:12.504Z,35.92
2018-09-26T12:48:41.258Z,34.53
2018-09-26T12:51:09.855Z,33.61
2018-09-26T12:53:38.490Z,34.79
2018-09-26T12:56:07.545Z,33.52
2018-09-26T12:58:36.281Z,34.23
2018-09-26T13:01:04.963Z,34.34
2018-09-26T13:03:33.596Z,35.09
2018-09-26T13:06:02.170Z,36.48
2018-09-26T13:08:30.737Z,37.23
2018-09-26T13:10:59.301Z,36.71
2018-09-26T13:13:27.846Z,35.84
2018-09-26T13:15:57.373Z,36.54
2018-09-26T13:18:26.202Z,33.84
2018-09-26T13:20:54.990Z,34.46
2018-09-26T13:23:23.508Z,34.13
2018-09-26T13:25:52.101Z,35.11
2018-09-26T13:28:20.708Z,35.64
2018-09-26T13:30:49.699Z,35.19
2018-09-26T13:33:19.383Z,35.77
2018-09-26T13:35:48.326Z,35.63
2018-09-26T13:38:17.042Z,34.68
2018-09-26T13:40:46.094Z,34.04
2018-09-26T13:43:14.667Z,36.01
2018-09-26T13:45:43.320Z,36.90
2018-09-26T13:48:12.043Z,36.96
2018-09-26T13:50:40.838Z,35.67
2018-09-26T13:53:09.433Z,35.36
2018-09-26T13:55:38.146Z,36.30
2018-09-26T13:58:07.247Z,37.25
2018-09-26T14:00:36.199Z,37.82
2018-09-26T14:03:04.758Z,36.83
2018-09-26T14:05:33.415Z,35.69
2018-09-26T14:08:01.995Z,37.22
2018-09-26T14:10:30.601Z,36.76
2018-09-26T14:12:59.188Z,35.61
2018-09-26T14:15:28.126Z,36.94
2018-09-26T14:17:56.855Z,37.88
2018-09-26T14:20:25.627Z,37.85
2018-09-26T14:22:55.012Z,38.81
2018-09-26T14:25:23.684Z,39.29
2018-09-26T14:27:52.462Z,40.92
2018-09-26T14:30:21.139Z,40.25
2018-09-26T14:32:49.922Z,38.44
2018-09-26T14:35:18.726Z,37.91
2018-09-26T14:37:47.639Z,37.77
2018-09-26T14:40:16.374Z,38.55
2018-09-26T14:42:45.066Z,38.89
2018-09-26T14:45:13.652Z,38.96
2018-09-26T14:47:42.766Z,38.40
2018-09-26T14:50:11.352Z,38.48
2018-09-26T14:52:40.722Z,39.67
2018-09-26T14:55:09.476Z,39.58
2018-09-26T14:57:38.374Z,39.41
2018-09-26T15:00:07.935Z,39.78
2018-09-26T15:02:36.672Z,39.43
2018-09-26T15:05:05.243Z,40.87
2018-09-26T15:07:33.841Z,39.73
2018-09-26T15:10:02.394Z,39.71
2018-09-26T15:12:31.078Z,40.26
2018-09-26T15:14:59.858Z,39.80
2018-09-26T15:17:28.498Z,39.55
2018-09-26T15:20:05.002Z,39.76
2018-09-26T15:22:33.758Z,39.73
2018-09-26T15:25:02.345Z,40.42
2018-09-26T15:27:30.988Z,40.45
2018-09-26T15:29:59.613Z,41.04
2018-09-26T15:32:28.278Z,40.46
2018-09-26T15:34:56.936Z,41.11
2018-09-26T15:37:25.461Z,41.51
2018-09-26T15:39:54.004Z,41.88
2018-09-26T15:42:22.557Z,41.94
2018-09-26T15:44:51.490Z,42.47
2018-09-26T15:47:20.058Z,42.28
2018-09-26T15:49:48.617Z,42.41
2018-09-26T15:52:17.171Z,43.45
2018-09-26T15:54:45.946Z,43.41
2018-09-26T15:57:14.490Z,42.44
2018-09-26T15:59:43.058Z,43.72
2018-09-26T16:02:11.723Z,44.42
2018-09-26T16:04:40.518Z,44.14
2018-09-26T16:07:09.143Z,44.83
2018-09-26T16:09:37.719Z,45.31
2018-09-26T16:12:06.367Z,45.05
2018-09-26T16:14:35.112Z,45.81
2018-09-26T16:17:03.694Z,45.97
2018-09-26T16:19:32.458Z,46.18
2018-09-26T16:22:01.088Z,46.94
2018-09-26T16:24:29.667Z,47.68
2018-09-26T16:26:58.259Z,48.62
2018-09-26T16:29:26.854Z,48.67
2018-09-26T16:31:55.620Z,49.31
2018-09-26T16:34:24.252Z,50.28
2018-09-26T16:36:53.057Z,50.21
2018-09-26T16:39:21.847Z,50.91
2018-09-26T16:41:50.621Z,50.99
2018-09-26T16:44:19.300Z,52.16
2018-09-26T16:46:48.066Z,52.47
2018-09-26T16:49:16.723Z,54.00
2018-09-26T16:51:45.377Z,54.71
2018-09-26T16:54:14.084Z,54.96
2018-09-26T16:56:42.904Z,55.75
2018-09-26T16:59:11.508Z,55.28
2018-09-26T17:01:40.095Z,55.74
2018-09-26T17:04:08.773Z,55.42
2018-09-26T17:06:37.546Z,55.62
2018-09-26T17:09:07.794Z,55.51
2018-09-26T17:11:36.353Z,54.91
2018-09-26T17:22:05.064Z,55.03
2018-09-26T17:24:33.996Z,55.71
2018-09-26T17:27:02.680Z,55.87
2018-09-26T17:29:31.264Z,54.93
2018-09-26T17:31:59.849Z,54.83
2018-09-26T17:34:28.451Z,54.72
2018-09-26T17:36:57.022Z,55.80
2018-09-26T17:39:25.654Z,56.05
2018-09-26T17:41:54.345Z,56.66
2018-09-26T17:44:23.026Z,55.58
2018-09-26T17:46:51.590Z,55.44
2018-09-26T17:49:20.220Z,55.60
2018-09-26T17:51:48.977Z,56.10
2018-09-26T17:54:17.854Z,55.38
2018-09-26T17:56:46.546Z,55.25
2018-09-26T17:59:15.210Z,55.89
2018-09-26T18:01:43.891Z,55.09
2018-09-26T18:04:12.698Z,55.86
2018-09-26T18:06:41.519Z,55.40
2018-09-26T18:09:11.191Z,55.20
2018-09-26T18:11:39.885Z,55.94
2018-09-26T18:14:08.514Z,56.22
2018-09-26T18:16:37.834Z,56.69
2018-09-26T18:19:07.117Z,56.53
2018-09-26T18:21:35.784Z,56.62
2018-09-26T18:24:04.424Z,57.16
2018-09-26T18:26:33.008Z,56.98
2018-09-26T18:29:01.573Z,57.35
2018-09-26T18:31:30.429Z,57.76
2018-09-26T18:33:59.021Z,58.48
2018-09-26T18:36:27.649Z,58.06
2018-09-26T18:38:56.372Z,58.81
2018-09-26T18:41:25.178Z,59.13
2018-09-26T18:43:53.821Z,59.66
2018-09-26T18:46:22.358Z,58.71
2018-09-26T18:48:50.962Z,58.47
2018-09-26T18:51:19.568Z,58.93
2018-09-26T18:53:48.171Z,59.24
2018-09-26T18:56:17.090Z,59.08
2018-09-26T18:58:45.967Z,59.97
2018-09-26T19:01:14.810Z,59.99
2018-09-26T19:03:43.553Z,60.22
2018-09-26T19:06:12.138Z,60.52
2018-09-26T19:08:40.719Z,60.07
2018-09-26T19:11:09.398Z,60.55
2018-09-26T19:13:38.051Z,61.04
2018-09-26T19:16:06.934Z,60.63
2018-09-26T19:18:35.589Z,61.43
2018-09-26T19:21:04.241Z,60.60
2018-09-26T19:23:33.043Z,59.57
2018-09-26T19:26:01.620Z,59.47
2018-09-26T19:28:30.183Z,59.32
2018-09-26T19:30:58.854Z,59.59
2018-09-26T19:33:27.637Z,59.73
2018-09-26T19:35:56.425Z,59.94
2018-09-26T19:38:25.062Z,58.87
2018-09-26T19:40:53.618Z,58.99
2018-09-26T19:43:22.158Z,57.46
2018-09-26T19:45:50.965Z,57.36
2018-09-26T19:48:19.674Z,57.38
2018-09-26T19:50:48.316Z,57.78
2018-09-26T19:53:16.954Z,57.56
2018-09-26T19:55:45.558Z,57.39
2018-09-26T19:58:14.221Z,57.74
2018-09-26T20:00:42.950Z,57.66
2018-09-26T20:03:11.530Z,57.87
2018-09-26T20:05:40.747Z,58.45
2018-09-26T20:08:09.482Z,57.97
2018-09-26T20:10:38.194Z,58.22
2018-09-26T20:13:06.832Z,58.62
2018-09-26T20:15:35.585Z,59.51
2018-09-26T20:18:04.142Z,59.65
2018-09-26T20:20:32.715Z,58.30
2018-09-26T20:23:01.344Z,57.71
2018-09-26T20:25:30.204Z,58.19
2018-09-26T20:27:58.805Z,58.04
2018-09-26T20:30:27.361Z,58.00
2018-09-26T20:32:56.013Z,58.01
2018-09-26T20:35:24.835Z,57.85
2018-09-26T20:37:53.542Z,57.81
2018-09-26T20:40:22.081Z,57.56
2018-09-26T20:42:50.815Z,56.32
2018-09-26T20:45:19.424Z,56.56
2018-09-26T20:47:48.253Z,56.95
2018-09-26T20:50:16.830Z,56.87
2018-09-26T20:52:45.381Z,57.37
2018-09-26T20:55:13.951Z,57.51
2018-09-26T20:57:42.509Z,58.33
2018-09-26T21:00:11.177Z,57.94
2018-09-26T21:02:39.754Z,58.07
2018-09-26T21:05:08.351Z,58.23
2018-09-26T21:07:37.046Z,57.91
2018-09-26T21:10:05.624Z,57.44
2018-09-26T21:12:34.226Z,58.51
2018-09-26T21:15:02.771Z,57.83
2018-09-26T21:17:31.465Z,58.31
2018-09-26T21:20:00.237Z,58.65
2018-09-26T21:22:28.847Z,59.62
2018-09-26T21:24:57.422Z,59.77
2018-09-26T21:27:26.008Z,60.22
2018-09-26T21:29:54.630Z,60.25
2018-09-26T21:32:23.321Z,61.04
2018-09-26T21:34:52.795Z,61.31
2018-09-26T21:37:21.630Z,61.55
2018-09-26T21:39:50.329Z,61.84
2018-09-26T21:42:18.873Z,61.16
2018-09-26T21:44:47.414Z,60.89
2018-09-26T21:47:15.978Z,61.34
2018-09-26T21:49:44.527Z,60.71
2018-09-26T21:52:13.240Z,60.77
2018-09-26T21:54:41.967Z,60.11
2018-09-26T21:57:10.696Z,60.37
2018-09-26T21:59:39.293Z,60.47
2018-09-26T22:02:07.955Z,60.00
2018-09-26T22:04:36.487Z,59.73
2018-09-26T22:07:05.119Z,60.02
2018-09-26T22:09:33.902Z,59.19
2018-09-26T22:12:02.627Z,60.00
2018-09-26T22:14:31.255Z,59.83
2018-09-26T22:17:00.179Z,58.78
2018-09-26T22:19:29.140Z,58.66
2018-09-26T22:21:57.663Z,59.07
2018-09-26T22:24:26.234Z,58.54
2018-09-26T22:26:54.810Z,59.50
2018-09-26T22:29:23.537Z,59.21
2018-09-26T22:31:52.276Z,60.36
2018-09-26T22:34:20.823Z,59.73
2018-09-26T22:36:49.378Z,59.43
2018-09-26T22:39:17.907Z,60.20
2018-09-26T22:41:46.458Z,59.95
2018-09-26T22:44:15.019Z,60.80
2018-09-26T22:46:43.671Z,60.09
2018-09-26T22:49:12.378Z,61.12
2018-09-26T22:51:40.988Z,61.61
2018-09-26T22:54:09.582Z,61.75
2018-09-26T22:56:38.250Z,60.73
2018-09-26T22:59:06.831Z,61.37
2018-09-26T23:01:35.480Z,61.01
2018-09-26T23:04:04.284Z,61.45
2018-09-26T23:06:32.900Z,61.65
2018-09-26T23:09:01.654Z,61.91
2018-09-26T23:11:30.232Z,61.69
2018-09-26T23:13:59.067Z,62.30
2018-09-26T23:16:27.639Z,62.33
2018-09-26T23:18:56.336Z,62.17
2018-09-26T23:21:25.635Z,61.61
2018-09-26T23:23:54.279Z,62.25
2018-09-26T23:26:22.942Z,61.17
2018-09-26T23:28:52.116Z,60.61
2018-09-26T23:31:21.372Z,61.15
2018-09-26T23:33:50.102Z,59.23
2018-09-26T23:36:18.660Z,59.46
2018-09-26T23:38:47.264Z,59.57
2018-09-26T23:41:16.086Z,60.38
2018-09-26T23:43:45.660Z,60.37
2018-09-26T23:46:14.322Z,63.14
2018-09-26T23:48:43.068Z,62.94
2018-09-26T23:51:12.390Z,62.84
2018-09-26T23:53:41.215Z,64.10
2018-09-26T23:56:09.782Z,63.38
2018-09-26T23:58:38.361Z,63.38
